Time;durP1;ratioP1;P1;durP2;ratioP2;P2;SDS_P1;SDS_P2;PMS_P1;PMS_P2;Temp;Humidity;BMP_temperature;BMP_pressure;BME280_temperature;BME280_humidity;BME280_pressure;Samples;Min_cycle;Max_cycle;Signal;HPM_P1;HPM_P2
2021/09/11 00:00:26;;;;;;;1999.90;999.90;;;;;;;;;;5073642;28;20470;-89
2021/09/11 00:02:53;;;;;;;1999.90;999.90;;;;;;;;;;5072369;28;20462;-87
2021/09/11 00:05:21;;;;;;;1999.90;999.90;;;;;;;;;;5069378;28;20447;-87
2021/09/11 00:07:49;;;;;;;1999.90;999.90;;;;;;;;;;5072546;28;20855;-88
2021/09/11 00:10:16;;;;;;;1999.90;999.90;;;;;;;;;;5073158;28;20467;-88
2021/09/11 00:12:43;;;;;;;1999.90;999.90;;;;;;;;;;5072791;28;20542;-87
2021/09/11 00:15:13;;;;;;;1999.90;999.90;;;;;;;;;;5072922;28;20482;-87
2021/09/11 00:17:41;;;;;;;1999.90;999.90;;;;;;;;;;5063247;28;20938;-87
2021/09/11 00:20:09;;;;;;;1999.90;999.90;;;;;;;;;;5072862;28;21099;-88
2021/09/11 00:22:36;;;;;;;1999.90;999.90;;;;;;;;;;5072575;28;20832;-87
2021/09/11 00:25:04;;;;;;;1999.90;999.90;;;;;;;;;;5072879;28;20446;-88
2021/09/11 00:27:31;;;;;;;1999.90;999.90;;;;;;;;;;5071978;28;20447;-88
2021/09/11 00:29:58;;;;;;;1999.90;999.90;;;;;;;;;;5065553;28;20490;-87
2021/09/11 00:32:26;;;;;;;1999.90;999.90;;;;;;;;;;5072812;28;20458;-88
2021/09/11 00:34:54;;;;;;;1999.90;999.90;;;;;;;;;;5070281;28;20482;-88
2021/09/11 00:37:21;;;;;;;1999.90;999.90;;;;;;;;;;5066277;28;20461;-86
2021/09/11 00:39:48;;;;;;;1999.90;999.90;;;;;;;;;;5068662;28;20473;-87
2021/09/11 00:42:15;;;;;;;1999.90;999.90;;;;;;;;;;5070038;28;20846;-87
2021/09/11 00:44:42;;;;;;;1999.90;999.90;;;;;;;;;;5071970;28;20479;-88
2021/09/11 00:47:09;;;;;;;1999.90;999.90;;;;;;;;;;5071971;28;20454;-86
2021/09/11 00:49:38;;;;;;;1510.17;826.40;;;;;;;;;;5073242;28;20553;-86
2021/09/11 00:52:05;;;;;;;1999.90;999.90;;;;;;;;;;5072455;28;20465;-86
2021/09/11 00:54:32;;;;;;;1999.90;999.90;;;;;;;;;;5072845;28;20578;-87
2021/09/11 00:57:00;;;;;;;1042.90;670.93;;;;;;;;;;5072528;28;20457;-87
2021/09/11 00:59:27;;;;;;;1464.87;781.20;;;;;;;;;;5073060;28;20478;-87
2021/09/11 01:01:55;;;;;;;1999.90;999.90;;;;;;;;;;5073072;28;20458;-88
2021/09/11 01:04:22;;;;;;;1999.90;999.90;;;;;;;;;;5072364;28;20446;-87
2021/09/11 01:06:50;;;;;;;1999.90;999.90;;;;;;;;;;5071766;28;20554;-87
2021/09/11 01:09:17;;;;;;;1999.90;999.90;;;;;;;;;;5072856;28;20477;-87
2021/09/11 01:11:45;;;;;;;1999.90;999.90;;;;;;;;;;5072503;28;20949;-87
2021/09/11 01:14:12;;;;;;;483.17;440.43;;;;;;;;;;5072572;28;20458;-86
2021/09/11 01:16:39;;;;;;;910.27;829.87;;;;;;;;;;5070742;28;20455;-86
2021/09/11 01:19:06;;;;;;;1521.67;835.77;;;;;;;;;;5071990;28;20477;-87
2021/09/11 01:21:34;;;;;;;1999.90;999.90;;;;;;;;;;5071943;28;20463;-87
2021/09/11 01:24:02;;;;;;;1999.90;999.90;;;;;;;;;;5072196;28;20458;-86
2021/09/11 01:26:29;;;;;;;1999.90;999.90;;;;;;;;;;5071223;28;20446;-87
2021/09/11 01:28:56;;;;;;;1492.60;808.47;;;;;;;;;;5072702;28;20451;-86
2021/09/11 01:31:23;;;;;;;464.07;417.07;;;;;;;;;;5073128;28;20466;-87
2021/09/11 01:33:51;;;;;;;1999.90;999.90;;;;;;;;;;5072552;28;20877;-87
2021/09/11 01:36:18;;;;;;;1592.60;902.23;;;;;;;;;;5071550;28;20478;-87
2021/09/11 01:38:45;;;;;;;1057.47;683.80;;;;;;;;;;5072598;28;20554;-87
2021/09/11 01:41:14;;;;;;;1626.00;932.00;;;;;;;;;;5072742;28;20537;-87
2021/09/11 01:43:41;;;;;;;1555.63;866.77;;;;;;;;;;5073119;28;20448;-86
2021/09/11 01:46:08;;;;;;;1554.10;865.63;;;;;;;;;;5073067;28;20452;-86
2021/09/11 01:48:35;;;;;;;1047.93;966.90;;;;;;;;;;5074696;28;20477;-86
2021/09/11 01:51:02;;;;;;;920.03;835.80;;;;;;;;;;5092366;28;20542;-87
2021/09/11 01:53:29;;;;;;;907.57;826.53;;;;;;;;;;5080343;28;20454;-87
2021/09/11 01:55:56;;;;;;;954.57;884.30;;;;;;;;;;5072263;28;20486;-88
2021/09/11 01:58:25;;;;;;;893.97;819.40;;;;;;;;;;5071323;28;20455;-87
2021/09/11 02:00:52;;;;;;;702.10;637.53;;;;;;;;;;5071922;28;20474;-87
2021/09/11 02:03:19;;;;;;;1504.03;819.30;;;;;;;;;;5071396;28;20996;-89
2021/09/11 02:05:46;;;;;;;1475.70;794.10;;;;;;;;;;5071392;28;20455;-87
2021/09/11 02:08:15;;;;;;;1999.90;999.90;;;;;;;;;;5071142;28;20455;-87
2021/09/11 02:10:42;;;;;;;852.00;792.53;;;;;;;;;;5071403;28;20473;-88
2021/09/11 02:13:09;;;;;;;827.87;758.97;;;;;;;;;;5071625;28;20987;-86
2021/09/11 02:15:38;;;;;;;777.47;713.57;;;;;;;;;;5071905;28;20489;-87
2021/09/11 02:18:05;;;;;;;997.60;920.23;;;;;;;;;;5070957;28;20955;-88
2021/09/11 02:20:32;;;;;;;1016.90;937.10;;;;;;;;;;5071958;28;20467;-88
2021/09/11 02:22:59;;;;;;;869.83;797.37;;;;;;;;;;5071828;28;20447;-87
2021/09/11 02:25:26;;;;;;;1045.97;965.50;;;;;;;;;;5071669;28;20473;-88
2021/09/11 02:27:53;;;;;;;944.63;873.50;;;;;;;;;;5074174;28;20450;-87
2021/09/11 02:30:20;;;;;;;958.53;882.37;;;;;;;;;;5074982;28;20489;-88
2021/09/11 02:32:49;;;;;;;907.73;838.17;;;;;;;;;;5075371;28;20453;-88
2021/09/11 02:35:16;;;;;;;654.60;601.03;;;;;;;;;;5074767;28;20565;-88
2021/09/11 02:37:43;;;;;;;979.30;906.13;;;;;;;;;;5075088;28;20453;-88
2021/09/11 02:40:10;;;;;;;932.60;865.10;;;;;;;;;;5075462;28;20474;-84
2021/09/11 02:42:38;;;;;;;1002.53;925.53;;;;;;;;;;5075205;28;20485;-87
2021/09/11 02:45:06;;;;;;;944.43;873.30;;;;;;;;;;5075776;28;20446;-87
2021/09/11 02:47:33;;;;;;;934.80;862.70;;;;;;;;;;5074702;28;20454;-86
2021/09/11 02:50:01;;;;;;;974.63;898.27;;;;;;;;;;5075489;28;20479;-86
2021/09/11 02:52:28;;;;;;;949.10;871.93;;;;;;;;;;5074961;28;20453;-86
2021/09/11 02:54:55;;;;;;;967.73;896.93;;;;;;;;;;5075545;28;20457;-87
2021/09/11 02:57:22;;;;;;;952.73;882.40;;;;;;;;;;5074341;28;20457;-86
2021/09/11 02:59:49;;;;;;;1083.87;998.77;;;;;;;;;;5074789;28;20478;-87
2021/09/11 03:02:17;;;;;;;565.57;516.87;;;;;;;;;;5074836;28;20461;-87
2021/09/11 03:04:44;;;;;;;1073.23;994.43;;;;;;;;;;5074119;28;21219;-88
2021/09/11 03:07:12;;;;;;;908.17;835.17;;;;;;;;;;5074178;28;20443;-85
2021/09/11 03:09:40;;;;;;;891.13;824.03;;;;;;;;;;5074533;28;20467;-88
2021/09/11 03:12:08;;;;;;;971.13;895.90;;;;;;;;;;5074397;28;20466;-87
2021/09/11 03:14:35;;;;;;;590.53;540.40;;;;;;;;;;5074354;28;20450;-87
2021/09/11 03:17:02;;;;;;;952.70;871.70;;;;;;;;;;5073410;28;20856;-87
2021/09/11 03:19:30;;;;;;;1526.80;841.77;;;;;;;;;;5074573;28;20482;-88
2021/09/11 03:21:57;;;;;;;974.37;899.20;;;;;;;;;;5074720;28;20951;-87
2021/09/11 03:24:25;;;;;;;753.57;689.50;;;;;;;;;;5074439;28;20482;-88
2021/09/11 03:26:52;;;;;;;1538.33;852.80;;;;;;;;;;5073589;28;20599;-88
2021/09/11 03:29:19;;;;;;;965.03;885.17;;;;;;;;;;5074233;28;20490;-88
2021/09/11 03:31:47;;;;;;;994.70;911.17;;;;;;;;;;5074455;28;20453;-87
2021/09/11 03:34:14;;;;;;;883.07;809.67;;;;;;;;;;5072020;28;20455;-88
2021/09/11 03:36:41;;;;;;;874.90;800.77;;;;;;;;;;5073053;28;21126;-88
2021/09/11 03:39:08;;;;;;;939.63;862.67;;;;;;;;;;5073659;28;20467;-88
2021/09/11 03:41:36;;;;;;;941.73;863.83;;;;;;;;;;5074707;28;20452;-88
2021/09/11 03:44:04;;;;;;;889.13;820.37;;;;;;;;;;5075273;28;20465;-89
2021/09/11 03:46:31;;;;;;;990.73;920.60;;;;;;;;;;5075541;28;20451;-87
2021/09/11 03:48:58;;;;;;;1030.77;948.13;;;;;;;;;;5099496;28;20449;-89
2021/09/11 03:51:25;;;;;;;1000.07;917.80;;;;;;;;;;5075838;28;20943;-86
2021/09/11 03:53:52;;;;;;;1546.03;860.43;;;;;;;;;;5073832;28;20954;-88
2021/09/11 03:56:19;;;;;;;764.27;704.03;;;;;;;;;;5073363;28;20493;-89
2021/09/11 03:58:48;;;;;;;920.40;843.60;;;;;;;;;;5073708;28;20446;-88
2021/09/11 04:01:15;;;;;;;917.50;844.03;;;;;;;;;;5073314;28;20485;-88
2021/09/11 04:03:42;;;;;;;880.27;807.43;;;;;;;;;;5073097;28;20451;-89
2021/09/11 04:06:10;;;;;;;1037.30;958.23;;;;;;;;;;5073052;28;20456;-87
2021/09/11 04:08:37;;;;;;;805.53;735.73;;;;;;;;;;5073427;28;20458;-87
2021/09/11 04:11:05;;;;;;;951.10;881.87;;;;;;;;;;5073640;28;20987;-88
2021/09/11 04:13:32;;;;;;;964.33;884.77;;;;;;;;;;5073872;28;20453;-87
2021/09/11 04:16:00;;;;;;;904.17;828.63;;;;;;;;;;5072815;28;20478;-87
2021/09/11 04:18:28;;;;;;;887.73;819.07;;;;;;;;;;5072972;28;21001;-88
2021/09/11 04:20:55;;;;;;;1488.30;807.53;;;;;;;;;;5072979;28;20489;-87
2021/09/11 04:23:22;;;;;;;1574.57;886.23;;;;;;;;;;5073652;28;20532;-87
2021/09/11 04:25:49;;;;;;;855.43;776.47;;;;;;;;;;5073294;28;20454;-87
2021/09/11 04:28:16;;;;;;;747.03;683.67;;;;;;;;;;5072014;28;20454;-87
2021/09/11 04:30:44;;;;;;;788.20;717.23;;;;;;;;;;5073627;28;20483;-87
2021/09/11 04:33:12;;;;;;;1518.43;834.80;;;;;;;;;;5072921;28;20451;-87
2021/09/11 04:35:39;;;;;;;797.43;729.93;;;;;;;;;;5072391;28;20486;-86
2021/09/11 04:38:06;;;;;;;1999.90;999.90;;;;;;;;;;5073193;28;20458;-87
2021/09/11 04:40:33;;;;;;;679.27;616.37;;;;;;;;;;5072354;28;20466;-87
2021/09/11 04:43:00;;;;;;;1033.80;953.87;;;;;;;;;;5072400;28;20465;-87
2021/09/11 04:45:28;;;;;;;1584.77;895.37;;;;;;;;;;5072393;28;20477;-87
2021/09/11 04:47:55;;;;;;;903.47;834.37;;;;;;;;;;5071991;28;20455;-88
2021/09/11 04:50:24;;;;;;;998.37;919.43;;;;;;;;;;5072066;28;20470;-86
2021/09/11 04:52:51;;;;;;;884.03;810.27;;;;;;;;;;5071894;28;20458;-87
2021/09/11 04:55:18;;;;;;;1617.63;925.93;;;;;;;;;;5072137;28;20560;-86
2021/09/11 04:57:45;;;;;;;951.40;866.80;;;;;;;;;;5073262;28;20491;-86
2021/09/11 05:00:12;;;;;;;453.07;414.00;;;;;;;;;;5072107;28;20475;-87
2021/09/11 05:02:40;;;;;;;997.63;915.43;;;;;;;;;;5071978;28;20454;-87
2021/09/11 05:05:07;;;;;;;1041.17;957.53;;;;;;;;;;5072010;28;20453;-87
2021/09/11 05:07:36;;;;;;;911.07;833.63;;;;;;;;;;5071029;28;20442;-86
2021/09/11 05:10:03;;;;;;;966.87;888.43;;;;;;;;;;5072210;28;20455;-87
2021/09/11 05:12:30;;;;;;;1063.43;972.60;;;;;;;;;;5071940;28;20830;-86
2021/09/11 05:14:57;;;;;;;635.10;575.60;;;;;;;;;;5071800;28;20537;-87
2021/09/11 05:17:24;;;;;;;533.10;487.97;;;;;;;;;;5071282;28;20484;-86
2021/09/11 05:19:51;;;;;;;1149.80;771.17;;;;;;;;;;5071756;28;20471;-88
2021/09/11 05:22:18;;;;;;;1522.63;837.60;;;;;;;;;;5072060;28;20546;-87
2021/09/11 05:24:47;;;;;;;578.93;528.30;;;;;;;;;;5071744;28;20451;-87
2021/09/11 05:27:14;;;;;;;908.37;844.43;;;;;;;;;;5077066;28;20449;-88
2021/09/11 05:29:41;;;;;;;1027.67;940.57;;;;;;;;;;5085597;28;21029;-87
2021/09/11 05:32:08;;;;;;;820.40;749.80;;;;;;;;;;5071912;28;20451;-87
2021/09/11 05:34:35;;;;;;;543.60;498.20;;;;;;;;;;5071953;28;20458;-88
2021/09/11 05:37:02;;;;;;;1559.07;871.23;;;;;;;;;;5071714;28;20483;-87
2021/09/11 05:39:30;;;;;;;1999.90;999.90;;;;;;;;;;5073154;28;20899;-87
2021/09/11 05:41:58;;;;;;;820.70;752.57;;;;;;;;;;5073595;28;20500;-88
2021/09/11 05:44:25;;;;;;;1999.90;999.90;;;;;;;;;;5081048;28;20435;-88
2021/09/11 05:46:53;;;;;;;1999.90;999.90;;;;;;;;;;5092036;28;20475;-88
2021/09/11 05:49:20;;;;;;;1999.90;999.90;;;;;;;;;;5071624;28;20533;-87
2021/09/11 05:51:47;;;;;;;1999.90;999.90;;;;;;;;;;5071771;28;21040;-86
2021/09/11 05:54:15;;;;;;;1999.90;999.90;;;;;;;;;;5071366;28;20450;-86
2021/09/11 05:56:42;;;;;;;1428.50;751.50;;;;;;;;;;5070818;28;20498;-86
2021/09/11 05:59:10;;;;;;;1999.90;999.90;;;;;;;;;;5071284;28;20479;-86
2021/09/11 06:01:39;;;;;;;1999.90;999.90;;;;;;;;;;5070695;28;20894;-86
2021/09/11 06:04:06;;;;;;;1999.90;999.90;;;;;;;;;;5067029;28;20455;-86
2021/09/11 06:06:34;;;;;;;1999.90;999.90;;;;;;;;;;5075484;28;20445;-86
2021/09/11 06:09:01;;;;;;;1465.67;785.70;;;;;;;;;;5076304;28;20855;-86
2021/09/11 06:11:28;;;;;;;1999.90;999.90;;;;;;;;;;5066777;28;20460;-86
2021/09/11 06:13:55;;;;;;;1999.90;999.90;;;;;;;;;;5074941;28;20481;-87
2021/09/11 06:16:24;;;;;;;1999.90;999.90;;;;;;;;;;5079256;28;20489;-86
2021/09/11 06:18:51;;;;;;;1999.90;999.90;;;;;;;;;;5074648;28;20460;-85
2021/09/11 06:21:18;;;;;;;1999.90;999.90;;;;;;;;;;5075129;28;20960;-85
2021/09/11 06:23:46;;;;;;;1999.90;999.90;;;;;;;;;;5075634;28;20445;-85
2021/09/11 06:26:13;;;;;;;1999.90;999.90;;;;;;;;;;5075072;28;20461;-85
2021/09/11 06:28:40;;;;;;;1999.90;999.90;;;;;;;;;;5075770;28;20452;-85
2021/09/11 06:31:07;;;;;;;1999.90;999.90;;;;;;;;;;5075130;28;20483;-85
2021/09/11 06:33:35;;;;;;;1999.90;999.90;;;;;;;;;;5074952;28;20465;-87
2021/09/11 06:36:02;;;;;;;853.57;780.50;;;;;;;;;;5069108;28;20464;-86
2021/09/11 06:38:30;;;;;;;927.83;849.63;;;;;;;;;;5073390;28;20467;-86
2021/09/11 06:40:57;;;;;;;1999.90;999.90;;;;;;;;;;5074649;28;20474;-86
2021/09/11 06:43:24;;;;;;;1999.90;999.90;;;;;;;;;;5075018;28;20456;-86
2021/09/11 06:45:51;;;;;;;1999.90;999.90;;;;;;;;;;5074052;28;20462;-85
2021/09/11 06:48:18;;;;;;;872.77;517.57;;;;;;;;;;5073591;28;20454;-85
2021/09/11 06:50:46;;;;;;;1999.90;999.90;;;;;;;;;;5061693;28;20480;-85
2021/09/11 06:53:13;;;;;;;1999.90;999.90;;;;;;;;;;5071895;28;20488;-85
2021/09/11 06:55:41;;;;;;;1999.90;999.90;;;;;;;;;;5074188;28;20459;-88
2021/09/11 06:58:08;;;;;;;1999.90;999.90;;;;;;;;;;5073533;28;20482;-87
2021/09/11 07:00:35;;;;;;;1999.90;999.90;;;;;;;;;;5074115;28;20473;-86
2021/09/11 07:03:02;;;;;;;1999.90;999.90;;;;;;;;;;5073744;28;20505;-86
2021/09/11 07:05:29;;;;;;;1999.90;999.90;;;;;;;;;;5073991;28;20450;-87
2021/09/11 07:07:58;;;;;;;1999.90;999.90;;;;;;;;;;5073969;28;20447;-87
2021/09/11 07:10:25;;;;;;;1999.90;999.90;;;;;;;;;;5074974;28;20477;-87
2021/09/11 07:12:52;;;;;;;1999.90;999.90;;;;;;;;;;5074899;28;20451;-88
2021/09/11 07:15:20;;;;;;;1999.90;999.90;;;;;;;;;;5075125;28;20454;-86
2021/09/11 07:17:47;;;;;;;1999.90;999.90;;;;;;;;;;5082172;28;20485;-87
2021/09/11 07:20:14;;;;;;;1999.90;999.90;;;;;;;;;;5074285;28;20482;-85
2021/09/11 07:22:41;;;;;;;1999.90;999.90;;;;;;;;;;5074052;28;20849;-86
2021/09/11 07:25:11;;;;;;;1999.90;999.90;;;;;;;;;;5074768;28;20453;-87
2021/09/11 07:27:38;;;;;;;1999.90;999.90;;;;;;;;;;5073933;28;20465;-87
2021/09/11 07:30:05;;;;;;;1999.90;999.90;;;;;;;;;;5074180;28;20923;-88
2021/09/11 07:32:33;;;;;;;1999.90;999.90;;;;;;;;;;5074722;28;20533;-87
2021/09/11 07:35:00;;;;;;;1999.90;999.90;;;;;;;;;;5074326;28;20450;-85
2021/09/11 07:37:27;;;;;;;1999.90;999.90;;;;;;;;;;5071131;28;20483;-85
2021/09/11 07:39:54;;;;;;;1999.90;999.90;;;;;;;;;;5069243;28;20474;-85
2021/09/11 07:42:22;;;;;;;1999.90;999.90;;;;;;;;;;5091959;28;20499;-83
2021/09/11 07:44:50;;;;;;;1999.90;999.90;;;;;;;;;;5077884;28;20802;-86
2021/09/11 07:47:17;;;;;;;1999.90;999.90;;;;;;;;;;5068116;28;20460;-88
2021/09/11 07:49:45;;;;;;;1999.90;999.90;;;;;;;;;;5073723;28;20471;-85
2021/09/11 07:52:12;;;;;;;1999.90;999.90;;;;;;;;;;5073547;28;20461;-88
2021/09/11 07:54:39;;;;;;;1999.90;999.90;;;;;;;;;;5073293;28;20451;-87
2021/09/11 07:57:06;;;;;;;1999.90;999.90;;;;;;;;;;5072388;28;20561;-86
2021/09/11 07:59:35;;;;;;;1999.90;999.90;;;;;;;;;;5073942;28;20483;-88
2021/09/11 08:02:02;;;;;;;1999.90;999.90;;;;;;;;;;5073273;28;20476;-85
2021/09/11 08:04:30;;;;;;;1999.90;999.90;;;;;;;;;;5072210;28;20462;-86
2021/09/11 08:06:57;;;;;;;1999.90;999.90;;;;;;;;;;5072503;28;20447;-86
2021/09/11 08:09:24;;;;;;;1999.90;999.90;;;;;;;;;;5072579;28;20466;-86
2021/09/11 08:11:51;;;;;;;1999.90;999.90;;;;;;;;;;5072355;28;20439;-86
2021/09/11 08:14:19;;;;;;;1999.90;999.90;;;;;;;;;;5073285;28;20454;-88
2021/09/11 08:16:47;;;;;;;1999.90;999.90;;;;;;;;;;5084879;28;20465;-86
2021/09/11 08:19:14;;;;;;;1999.90;999.90;;;;;;;;;;5093248;28;20470;-87
2021/09/11 08:21:41;;;;;;;1999.90;999.90;;;;;;;;;;5073621;28;20959;-86
2021/09/11 08:24:09;;;;;;;1999.90;999.90;;;;;;;;;;5065160;28;20473;-88
2021/09/11 08:26:36;;;;;;;1999.90;999.90;;;;;;;;;;5072288;28;20490;-86
2021/09/11 08:29:03;;;;;;;1999.90;999.90;;;;;;;;;;5070181;28;20451;-86
2021/09/11 08:31:30;;;;;;;1999.90;999.90;;;;;;;;;;5068730;28;21095;-87
2021/09/11 08:33:58;;;;;;;1999.90;999.90;;;;;;;;;;5070146;28;20561;-87
2021/09/11 08:36:26;;;;;;;1999.90;999.90;;;;;;;;;;5067646;28;20455;-86
2021/09/11 08:38:53;;;;;;;1999.90;999.90;;;;;;;;;;5070809;28;20486;-87
2021/09/11 08:41:20;;;;;;;1999.90;999.90;;;;;;;;;;5072009;28;20955;-85
2021/09/11 08:43:48;;;;;;;1999.90;999.90;;;;;;;;;;5073475;28;20546;-87
2021/09/11 08:46:15;;;;;;;1999.90;999.90;;;;;;;;;;5076618;28;20455;-86
2021/09/11 08:48:42;;;;;;;1999.90;999.90;;;;;;;;;;5072255;28;20537;-87
2021/09/11 08:51:10;;;;;;;1999.90;999.90;;;;;;;;;;5071809;28;20483;-87
2021/09/11 08:53:38;;;;;;;1999.90;999.90;;;;;;;;;;5072477;28;20451;-87
2021/09/11 08:56:05;;;;;;;1999.90;999.90;;;;;;;;;;5072219;28;20451;-86
2021/09/11 08:58:32;;;;;;;1999.90;999.90;;;;;;;;;;5071208;28;20485;-87
2021/09/11 09:00:59;;;;;;;1999.90;999.90;;;;;;;;;;5071618;28;20463;-86
2021/09/11 09:03:30;;;;;;;1999.90;999.90;;;;;;;;;;5072016;28;20822;-87
2021/09/11 09:05:57;;;;;;;1999.90;999.90;;;;;;;;;;5071564;28;20451;-87
2021/09/11 09:08:30;;;;;;;1999.90;999.90;;;;;;;;;;5071335;28;20825;-88
2021/09/11 09:10:57;;;;;;;1999.90;999.90;;;;;;;;;;5064493;28;21005;-87
2021/09/11 09:13:24;;;;;;;1999.90;999.90;;;;;;;;;;5072587;28;20461;-87
2021/09/11 09:15:51;;;;;;;1999.90;999.90;;;;;;;;;;5070903;28;21183;-88
2021/09/11 09:18:18;;;;;;;1999.90;999.90;;;;;;;;;;5066369;28;20880;-87
2021/09/11 09:20:45;;;;;;;1999.90;999.90;;;;;;;;;;5071322;28;20505;-87
2021/09/11 09:23:17;;;;;;;1999.90;999.90;;;;;;;;;;5071630;28;20454;-87
2021/09/11 09:25:46;;;;;;;1999.90;999.90;;;;;;;;;;5071131;28;20479;-87
2021/09/11 09:28:14;;;;;;;1999.90;999.90;;;;;;;;;;5068752;28;21010;-87
2021/09/11 09:30:44;;;;;;;1999.90;999.90;;;;;;;;;;5073124;28;20479;-86
2021/09/11 09:33:18;;;;;;;1999.90;999.90;;;;;;;;;;5078421;28;20953;-86
2021/09/11 09:35:46;;;;;;;1999.90;999.90;;;;;;;;;;5078804;28;20476;-87
2021/09/11 09:38:13;;;;;;;1999.90;999.90;;;;;;;;;;5085066;28;20488;-87
2021/09/11 09:40:42;;;;;;;1999.90;999.90;;;;;;;;;;5089405;28;20542;-86
2021/09/11 09:43:11;;;;;;;1999.90;999.90;;;;;;;;;;5072814;28;21045;-88
2021/09/11 09:45:39;;;;;;;1999.90;999.90;;;;;;;;;;5075175;28;21051;-86
2021/09/11 09:48:08;;;;;;;1999.90;999.90;;;;;;;;;;5074180;28;20443;-86
2021/09/11 09:50:36;;;;;;;1999.90;999.90;;;;;;;;;;5074877;28;20535;-86
2021/09/11 09:53:03;;;;;;;1999.90;999.90;;;;;;;;;;5073739;28;20451;-86
2021/09/11 09:55:30;;;;;;;1999.90;999.90;;;;;;;;;;5073473;28;20483;-88
2021/09/11 09:57:57;;;;;;;1999.90;999.90;;;;;;;;;;5073386;28;20486;-85
2021/09/11 10:00:26;;;;;;;1999.90;999.90;;;;;;;;;;5074489;28;20497;-86
2021/09/11 10:02:54;;;;;;;1999.90;999.90;;;;;;;;;;5075273;28;20455;-87
2021/09/11 10:05:22;;;;;;;1999.90;999.90;;;;;;;;;;5077228;28;20455;-87
2021/09/11 10:07:55;;;;;;;1999.90;999.90;;;;;;;;;;5074187;28;20836;-87
2021/09/11 10:10:27;;;;;;;1999.90;999.90;;;;;;;;;;5075505;28;20474;-88
2021/09/11 10:13:04;;;;;;;1999.90;999.90;;;;;;;;;;5076658;28;20834;-85
2021/09/11 10:15:35;;;;;;;1999.90;999.90;;;;;;;;;;5075199;28;20829;-86
2021/09/11 10:18:02;;;;;;;1999.90;999.90;;;;;;;;;;5074789;28;20512;-85
2021/09/11 10:20:30;;;;;;;1999.90;999.90;;;;;;;;;;5079678;28;20461;-88
2021/09/11 10:23:04;;;;;;;1999.90;999.90;;;;;;;;;;5079658;28;20984;-85
2021/09/11 10:25:41;;;;;;;1999.90;999.90;;;;;;;;;;5075995;28;21022;-86
2021/09/11 10:28:15;;;;;;;1999.90;999.90;;;;;;;;;;5071300;28;20500;-87
2021/09/11 10:31:00;;;;;;;1999.90;999.90;;;;;;;;;;5093653;22;20554;-82
2021/09/11 10:33:50;;;;;;;1999.90;999.90;;;;;;;;;;5069235;28;20451;-80
2021/09/11 10:36:19;;;;;;;1999.90;999.90;;;;;;;;;;5065207;28;20865;-81
2021/09/11 10:38:50;;;;;;;1999.90;999.90;;;;;;;;;;5076786;28;20479;-79
2021/09/11 10:41:18;;;;;;;1999.90;999.90;;;;;;;;;;5073643;28;20862;-81
2021/09/11 10:44:05;;;;;;;1999.90;999.90;;;;;;;;;;5057739;28;20452;-79
2021/09/11 10:46:47;;;;;;;1999.90;999.90;;;;;;;;;;5053442;28;20459;-79
2021/09/11 10:49:27;;;;;;;1999.90;999.90;;;;;;;;;;5056381;28;20448;-79
2021/09/11 10:52:02;;;;;;;1999.90;999.90;;;;;;;;;;5059126;28;20550;-80
2021/09/11 10:54:31;;;;;;;1999.90;999.90;;;;;;;;;;5050617;28;20494;-80
2021/09/11 10:57:05;;;;;;;1999.90;999.90;;;;;;;;;;5057663;28;20467;-80
2021/09/11 10:59:36;;;;;;;1999.90;999.90;;;;;;;;;;5058736;28;20493;-79
2021/09/11 11:02:14;;;;;;;1999.90;999.90;;;;;;;;;;5052618;28;20956;-79
2021/09/11 11:04:53;;;;;;;1999.90;999.90;;;;;;;;;;5044535;28;20454;-79
2021/09/11 11:07:21;;;;;;;1999.90;999.90;;;;;;;;;;5050861;28;20455;-79
2021/09/11 11:09:49;;;;;;;1999.90;999.90;;;;;;;;;;5059329;28;20471;-81
2021/09/11 11:12:20;;;;;;;1999.90;999.90;;;;;;;;;;5050871;28;20851;-78
2021/09/11 11:14:47;;;;;;;1999.90;999.90;;;;;;;;;;5057943;28;20833;-79
2021/09/11 11:17:14;;;;;;;1999.90;999.90;;;;;;;;;;5059037;28;20470;-80
2021/09/11 11:19:44;;;;;;;1999.90;999.90;;;;;;;;;;5059569;28;20483;-79
2021/09/11 11:22:12;;;;;;;1999.90;999.90;;;;;;;;;;5049170;28;20479;-80
2021/09/11 11:24:41;;;;;;;1999.90;999.90;;;;;;;;;;5044030;28;20451;-80
2021/09/11 11:27:08;;;;;;;1999.90;999.90;;;;;;;;;;5057568;28;20448;-81
2021/09/11 11:29:36;;;;;;;1999.90;999.90;;;;;;;;;;5053756;28;20453;-81
2021/09/11 11:32:04;;;;;;;1999.90;999.90;;;;;;;;;;5038387;28;20532;-81
2021/09/11 11:34:31;;;;;;;1999.90;999.90;;;;;;;;;;5042339;28;20456;-80
2021/09/11 11:37:01;;;;;;;1999.90;999.90;;;;;;;;;;5057340;28;20869;-80
2021/09/11 11:39:30;;;;;;;1999.90;999.90;;;;;;;;;;5058978;28;20867;-81
2021/09/11 11:41:58;;;;;;;1999.90;999.90;;;;;;;;;;5058094;28;20452;-80
2021/09/11 11:44:25;;;;;;;1999.90;999.90;;;;;;;;;;5054752;28;20948;-79
2021/09/11 11:46:53;;;;;;;1999.90;999.90;;;;;;;;;;5037187;28;20475;-81
2021/09/11 11:49:20;;;;;;;1999.90;999.90;;;;;;;;;;5037096;28;20448;-80
2021/09/11 11:51:52;;;;;;;1999.90;999.90;;;;;;;;;;5037266;28;20459;-79
2021/09/11 11:54:21;;;;;;;1999.90;999.90;;;;;;;;;;5036466;28;20453;-79
2021/09/11 11:56:49;;;;;;;1999.90;999.90;;;;;;;;;;5052054;28;20530;-79
2021/09/11 11:59:22;;;;;;;1999.90;999.90;;;;;;;;;;5045899;28;21020;-79
2021/09/11 12:01:49;;;;;;;1999.90;999.90;;;;;;;;;;5055141;28;20509;-80
2021/09/11 12:04:17;;;;;;;1999.90;999.90;;;;;;;;;;5043117;28;20963;-79
2021/09/11 12:06:48;;;;;;;1999.90;999.90;;;;;;;;;;5038551;28;20455;-78
2021/09/11 12:09:16;;;;;;;1999.90;999.90;;;;;;;;;;5050390;28;20448;-79
2021/09/11 12:11:46;;;;;;;1999.90;999.90;;;;;;;;;;5050684;28;20476;-77
2021/09/11 12:14:14;;;;;;;1999.90;999.90;;;;;;;;;;5035205;28;20961;-79
2021/09/11 12:16:42;;;;;;;1999.90;999.90;;;;;;;;;;5034670;28;20457;-78
2021/09/11 12:19:10;;;;;;;1999.90;999.90;;;;;;;;;;5052049;28;20488;-79
2021/09/11 12:21:38;;;;;;;1999.90;999.90;;;;;;;;;;5055462;28;20467;-79
2021/09/11 12:24:05;;;;;;;1999.90;999.90;;;;;;;;;;5046435;28;20460;-79
2021/09/11 12:26:33;;;;;;;1999.90;999.90;;;;;;;;;;5046397;28;20453;-80
2021/09/11 12:29:08;;;;;;;1999.90;999.90;;;;;;;;;;5036742;28;20453;-79
2021/09/11 12:31:39;;;;;;;1999.90;999.90;;;;;;;;;;5035992;28;20512;-81
2021/09/11 12:34:11;;;;;;;1999.90;999.90;;;;;;;;;;5035053;28;20531;-80
2021/09/11 12:36:38;;;;;;;1999.90;999.90;;;;;;;;;;5039989;28;20460;-79
2021/09/11 12:39:07;;;;;;;1999.90;999.90;;;;;;;;;;5043678;28;20582;-78
2021/09/11 12:41:34;;;;;;;1999.90;999.90;;;;;;;;;;5050732;28;20472;-78
2021/09/11 12:44:02;;;;;;;1999.90;999.90;;;;;;;;;;5043665;28;20452;-79
2021/09/11 12:46:34;;;;;;;1999.90;999.90;;;;;;;;;;5037418;28;20463;-77
2021/09/11 12:49:04;;;;;;;1999.90;999.90;;;;;;;;;;5053259;28;20479;-78
2021/09/11 12:51:31;;;;;;;1999.90;999.90;;;;;;;;;;5047200;28;20984;-79
2021/09/11 12:53:59;;;;;;;1999.90;999.90;;;;;;;;;;5034154;28;20478;-79
2021/09/11 12:56:26;;;;;;;1999.90;999.90;;;;;;;;;;5034244;28;20461;-79
2021/09/11 12:58:54;;;;;;;1999.90;999.90;;;;;;;;;;5035013;28;20495;-80
2021/09/11 13:01:22;;;;;;;1999.90;999.90;;;;;;;;;;5033659;28;21004;-78
2021/09/11 13:03:50;;;;;;;1999.90;999.90;;;;;;;;;;5052079;28;20447;-78
2021/09/11 13:06:17;;;;;;;1999.90;999.90;;;;;;;;;;5033387;28;20457;-79
2021/09/11 13:08:45;;;;;;;1999.90;999.90;;;;;;;;;;5033957;28;20969;-80
2021/09/11 13:11:13;;;;;;;1999.90;999.90;;;;;;;;;;5033807;28;20481;-79
2021/09/11 13:13:40;;;;;;;1999.90;999.90;;;;;;;;;;5034128;28;20457;-79
2021/09/11 13:16:08;;;;;;;1999.90;999.90;;;;;;;;;;5051276;28;20456;-79
2021/09/11 13:18:35;;;;;;;1999.90;999.90;;;;;;;;;;5054234;28;20519;-79
2021/09/11 13:21:08;;;;;;;1999.90;999.90;;;;;;;;;;5057082;28;20467;-79
2021/09/11 13:23:36;;;;;;;1999.90;999.90;;;;;;;;;;5056194;28;20574;-79
2021/09/11 13:26:04;;;;;;;1999.90;999.90;;;;;;;;;;5053497;28;20498;-80
2021/09/11 13:28:31;;;;;;;1999.90;999.90;;;;;;;;;;5053754;28;20447;-79
2021/09/11 13:30:58;;;;;;;1999.90;999.90;;;;;;;;;;5053672;28;20494;-79
2021/09/11 13:33:25;;;;;;;1999.90;999.90;;;;;;;;;;5052977;28;20448;-80
2021/09/11 13:35:53;;;;;;;1999.90;999.90;;;;;;;;;;5036434;28;20453;-79
2021/09/11 13:38:21;;;;;;;1999.90;999.90;;;;;;;;;;5031969;28;20459;-80
2021/09/11 13:40:48;;;;;;;1999.90;999.90;;;;;;;;;;5039309;28;20467;-80
2021/09/11 13:43:15;;;;;;;1999.90;999.90;;;;;;;;;;5038959;28;20459;-80
2021/09/11 13:45:42;;;;;;;1999.90;999.90;;;;;;;;;;5054707;28;20806;-79
2021/09/11 13:48:10;;;;;;;1999.90;999.90;;;;;;;;;;5048429;28;20463;-80